createdAt,value
2022-08-14T00:01:46.163Z,95383.59
2022-08-14T00:04:32.168Z,95382.81
2022-08-14T00:07:04.766Z,95375.63
2022-08-14T00:09:55.876Z,95376.16
2022-08-14T00:12:24.442Z,95375.09
2022-08-14T00:14:54.846Z,95379.63
2022-08-14T00:17:21.999Z,95375.63
2022-08-14T00:19:48.556Z,95376.16
2022-08-14T00:22:44.091Z,95373.19
2022-08-14T00:25:10.059Z,95367.28
2022-08-14T00:27:37.987Z,95363.50
2022-08-14T00:30:14.171Z,95356.53
2022-08-14T00:32:55.745Z,95364.31
2022-08-14T00:36:36.034Z,95363.25
2022-08-14T00:38:15.392Z,95360.06
2022-08-14T00:40:46.201Z,95360.06
2022-08-14T00:43:13.488Z,95358.44
2022-08-14T00:45:42.873Z,95352.28
2022-08-14T00:48:34.273Z,95357.38
2022-08-14T00:51:06.387Z,95353.59
2022-08-14T00:53:33.368Z,95354.41
2022-08-14T00:55:59.948Z,95361.94
2022-08-14T00:58:33.319Z,95361.41
2022-08-14T01:01:11.551Z,95362.22
2022-08-14T01:03:42.560Z,95354.97
2022-08-14T01:06:15.291Z,95360.84
2022-08-14T01:08:51.979Z,95359.25
2022-08-14T01:11:35.528Z,95356.84
2022-08-14T01:14:18.117Z,95349.84
2022-08-14T01:16:52.836Z,95361.69
2022-08-14T01:19:38.676Z,95357.41
2022-08-14T01:22:08.100Z,95363.53
2022-08-14T01:24:39.518Z,95358.72
2022-08-14T01:27:07.313Z,95352.53
2022-08-14T01:29:58.561Z,95360.34
2022-08-14T01:32:24.608Z,95356.84
2022-08-14T01:35:18.632Z,95362.22
2022-08-14T01:37:44.493Z,95354.16
2022-08-14T01:40:19.794Z,95353.06
2022-08-14T01:42:46.754Z,95349.59
2022-08-14T01:45:17.791Z,95359.00
2022-08-14T01:47:51.918Z,95353.09
2022-08-14T01:50:29.671Z,95358.75
2022-08-14T01:52:59.174Z,95355.25
2022-08-14T01:55:32.514Z,95362.78
2022-08-14T01:58:01.839Z,95357.44
2022-08-14T02:00:48.051Z,95361.75
2022-08-14T02:03:16.175Z,95353.97
2022-08-14T02:05:43.545Z,95353.16
2022-08-14T02:08:10.621Z,95346.19
2022-08-14T02:10:46.655Z,95347.53
2022-08-14T02:13:16.113Z,95342.69
2022-08-14T02:15:43.666Z,95339.47
2022-08-14T02:18:10.587Z,95335.97
2022-08-14T02:20:40.021Z,95330.63
2022-08-14T02:23:08.315Z,95332.78
2022-08-14T02:25:35.032Z,95334.66
2022-08-14T02:28:23.428Z,95343.00
2022-08-14T02:30:52.359Z,95336.00
2022-08-14T02:33:20.602Z,95329.03
2022-08-14T02:35:53.305Z,95333.31
2022-08-14T02:38:29.579Z,95326.34
2022-08-14T02:40:58.651Z,95331.47
2022-08-14T02:43:37.346Z,95336.00
2022-08-14T02:46:13.532Z,95340.59
2022-08-14T02:49:02.468Z,95340.59
2022-08-14T02:51:36.519Z,95343.28
2022-08-14T02:54:05.300Z,95345.97
2022-08-14T02:57:15.431Z,95339.78
2022-08-14T02:59:19.143Z,95345.97
2022-08-14T03:01:51.182Z,95344.06
2022-08-14T03:04:22.406Z,95334.97
2022-08-14T03:06:57.857Z,95335.75
2022-08-14T03:09:41.917Z,95340.03
2022-08-14T03:12:31.415Z,95340.84
2022-08-14T03:15:02.793Z,95342.44
2022-08-14T03:17:32.115Z,95337.91
2022-08-14T03:20:11.143Z,95340.59
2022-08-14T03:22:42.081Z,95337.09
2022-08-14T03:25:10.030Z,95338.41
2022-08-14T03:27:48.411Z,95342.47
2022-08-14T03:30:24.719Z,95339.78
2022-08-14T03:33:08.109Z,95341.38
2022-08-14T03:35:39.990Z,95342.44
2022-08-14T03:39:12.936Z,95343.28
2022-08-14T03:41:00.666Z,95344.06
2022-08-14T03:43:28.531Z,95341.09
2022-08-14T03:45:59.967Z,95333.03
2022-08-14T03:48:30.133Z,95340.84
2022-08-14T03:50:57.522Z,95342.44
2022-08-14T03:53:26.354Z,95335.19
2022-08-14T03:55:56.125Z,95341.34
2022-08-14T03:58:36.609Z,95335.19
2022-08-14T04:01:04.304Z,95332.50
2022-08-14T04:03:33.273Z,95334.38
2022-08-14T04:06:04.904Z,95344.31
2022-08-14T04:08:37.031Z,95341.63
2022-08-14T04:11:10.142Z,95349.41
2022-08-14T04:13:39.794Z,95343.53
2022-08-14T04:16:14.081Z,95349.44
2022-08-14T04:18:46.282Z,95348.13
2022-08-14T04:21:14.836Z,95350.53
2022-08-14T04:23:43.389Z,95352.94
2022-08-14T04:26:14.210Z,95350.78
2022-08-14T04:29:01.466Z,95347.28
2022-08-14T04:32:59.322Z,95347.81
2022-08-14T04:34:24.246Z,95343.78
2022-08-14T04:37:13.155Z,95344.88
2022-08-14T04:39:58.862Z,95339.22
2022-08-14T04:42:47.198Z,95350.22
2022-08-14T04:45:20.019Z,95343.00
2022-08-14T04:48:05.564Z,95350.50
2022-08-14T04:50:37.903Z,95350.50
2022-08-14T04:53:23.123Z,95350.22
2022-08-14T04:55:53.442Z,95352.63
2022-08-14T04:58:32.226Z,95348.34
2022-08-14T05:01:01.116Z,95352.63
2022-08-14T05:03:31.465Z,95352.63
2022-08-14T05:06:00.319Z,95355.84
2022-08-14T05:08:32.004Z,95355.31
2022-08-14T05:11:13.931Z,95354.75
2022-08-14T05:14:43.266Z,95356.41
2022-08-14T05:16:31.735Z,95353.97
2022-08-14T05:19:25.084Z,95351.56
2022-08-14T05:21:57.146Z,95356.38
2022-08-14T05:24:27.742Z,95359.88
2022-08-14T05:26:54.474Z,95355.84
2022-08-14T05:29:21.913Z,95356.13
2022-08-14T05:31:49.018Z,95348.34
2022-08-14T05:34:22.427Z,95348.03
2022-08-14T05:37:02.873Z,95348.34
2022-08-14T05:39:31.263Z,95355.84
2022-08-14T05:41:58.318Z,95355.59
2022-08-14T05:44:29.942Z,95358.25
2022-08-14T05:46:58.305Z,95353.69
2022-08-14T05:49:32.663Z,95350.75
2022-08-14T05:52:01.845Z,95353.94
2022-08-14T05:54:30.686Z,95356.34
2022-08-14T05:57:04.596Z,95359.00
2022-08-14T05:59:38.647Z,95359.00
2022-08-14T06:02:06.365Z,95357.91
2022-08-14T06:04:32.915Z,95354.97
2022-08-14T06:06:59.616Z,95355.78
2022-08-14T06:09:26.375Z,95350.41
2022-08-14T06:11:53.199Z,95360.09
2022-08-14T06:14:23.835Z,95359.53
2022-08-14T06:16:53.070Z,95357.91
2022-08-14T06:19:20.250Z,95362.22
2022-08-14T06:21:55.835Z,95354.94
2022-08-14T06:24:26.120Z,95348.75
2022-08-14T06:26:56.601Z,95359.19
2022-08-14T06:29:33.408Z,95356.75
2022-08-14T06:32:37.619Z,95365.59
2022-08-14T06:35:02.593Z,95362.38
2022-08-14T06:37:43.993Z,95364.75
2022-08-14T06:40:25.552Z,95359.91
2022-08-14T06:43:06.855Z,95370.91
2022-08-14T06:45:34.583Z,95360.97
2022-08-14T06:48:06.189Z,95366.03
2022-08-14T06:50:39.795Z,95360.91
2022-08-14T06:53:07.329Z,95368.41
2022-08-14T06:55:34.164Z,95361.91
2022-08-14T06:58:03.751Z,95353.53
2022-08-14T07:00:31.558Z,95351.66
2022-08-14T07:03:19.408Z,95349.72
2022-08-14T07:05:55.427Z,95355.88
2022-08-14T07:08:29.515Z,95352.91
2022-08-14T07:11:01.012Z,95344.28
2022-08-14T07:13:30.390Z,95341.06
2022-08-14T07:16:00.614Z,95349.97
2022-08-14T07:18:31.103Z,95351.03
2022-08-14T07:20:59.652Z,95346.72
2022-08-14T07:23:26.660Z,95347.25
2022-08-14T07:25:55.890Z,95352.59
2022-08-14T07:28:43.033Z,95347.16
2022-08-14T07:31:11.837Z,95343.91
2022-08-14T07:33:49.982Z,95355.44
2022-08-14T07:36:27.036Z,95345.97
2022-08-14T07:39:00.322Z,95344.34
2022-08-14T07:52:42.506Z,95346.25
2022-08-14T07:55:15.150Z,95341.94
2022-08-14T07:57:48.041Z,95335.78
2022-08-14T08:00:31.136Z,95346.25
2022-08-14T08:03:00.274Z,95341.09
2022-08-14T08:05:27.955Z,95342.41
2022-08-14T08:07:54.926Z,95339.44
2022-08-14T08:10:57.147Z,95333.75
2022-08-14T08:13:24.470Z,95337.53
2022-08-14T08:15:57.412Z,95337.47
2022-08-14T08:18:29.218Z,95338.00
2022-08-14T08:20:59.217Z,95341.22
2022-08-14T08:23:30.291Z,95340.13
2022-08-14T08:26:08.063Z,95344.91
2022-08-14T08:28:35.036Z,95337.88
2022-08-14T08:31:05.785Z,95340.50
2022-08-14T08:33:37.032Z,95330.75
2022-08-14T08:36:12.614Z,95337.66
2022-08-14T08:39:17.532Z,95334.38
2022-08-14T08:41:28.041Z,95331.66
2022-08-14T08:44:05.560Z,95334.56
2022-08-14T08:46:32.215Z,95331.03
2022-08-14T08:51:33.407Z,95323.09
2022-08-14T08:54:01.287Z,95332.91
2022-08-14T08:56:40.423Z,95326.25
2022-08-14T08:59:21.903Z,95326.78
2022-08-14T09:01:56.256Z,95323.00
2022-08-14T09:04:35.615Z,95325.91
2022-08-14T09:07:12.182Z,95325.44
2022-08-14T09:09:53.625Z,95321.56
2022-08-14T09:12:23.790Z,95323.09
2022-08-14T09:14:53.271Z,95328.72
2022-08-14T09:17:20.685Z,95328.41
2022-08-14T09:19:53.658Z,95325.13
2022-08-14T09:22:35.173Z,95324.97
2022-08-14T09:25:07.406Z,95323.19
2022-08-14T09:27:35.388Z,95323.13
2022-08-14T09:30:31.633Z,95316.00
2022-08-14T09:33:17.413Z,95313.22
2022-08-14T09:36:27.781Z,95306.03
2022-08-14T09:39:42.364Z,95302.72
2022-08-14T09:42:50.038Z,95297.22
2022-08-14T09:45:40.101Z,95290.34
2022-08-14T09:48:27.511Z,95280.81
2022-08-14T09:50:56.641Z,95285.34
2022-08-14T09:54:18.181Z,95279.75
2022-08-14T09:56:32.785Z,95281.34
2022-08-14T09:59:15.172Z,95279.44
2022-08-14T10:01:43.988Z,95275.53
2022-08-14T10:04:36.535Z,95277.25
2022-08-14T10:07:08.500Z,95273.03
2022-08-14T10:09:59.658Z,95270.44
2022-08-14T10:12:42.723Z,95262.78
2022-08-14T10:15:20.057Z,95271.50
2022-08-14T10:17:53.298Z,95268.34
2022-08-14T10:20:39.777Z,95272.38
2022-08-14T10:23:15.833Z,95264.56
2022-08-14T10:25:52.961Z,95273.97
2022-08-14T10:29:03.891Z,95257.75
2022-08-14T10:31:29.801Z,95264.34
2022-08-14T10:34:12.929Z,95259.38
2022-08-14T10:36:44.895Z,95257.66
2022-08-14T10:39:23.686Z,95259.50
2022-08-14T10:42:16.465Z,95259.44
2022-08-14T10:44:48.835Z,95256.31
2022-08-14T10:47:39.642Z,95265.75
2022-08-14T10:50:06.605Z,95263.50
2022-08-14T10:52:35.767Z,95258.66
2022-08-14T10:55:14.244Z,95256.53
2022-08-14T10:57:52.861Z,95256.91
2022-08-14T11:00:30.354Z,95262.06
2022-08-14T11:03:19.896Z,95263.22
2022-08-14T11:05:55.654Z,95262.16
2022-08-14T11:08:33.926Z,95259.22
2022-08-14T11:11:03.360Z,95260.06
2022-08-14T11:13:31.799Z,95259.97
2022-08-14T11:16:01.263Z,95266.06
2022-08-14T11:18:36.282Z,95273.06
2022-08-14T11:21:08.358Z,95273.06
2022-08-14T11:23:40.681Z,95267.16
2022-08-14T11:26:11.926Z,95265.25
2022-08-14T11:28:46.351Z,95265.06
2022-08-14T11:31:23.831Z,95267.63
2022-08-14T11:33:57.801Z,95272.91
2022-08-14T11:36:35.200Z,95277.97
2022-08-14T11:39:34.637Z,95274.19
2022-08-14T11:42:56.702Z,95276.09
2022-08-14T11:45:04.325Z,95269.47
2022-08-14T11:47:43.671Z,95274.09
2022-08-14T11:50:34.134Z,95269.47
2022-08-14T11:53:05.622Z,95273.84
2022-08-14T11:55:38.350Z,95274.19
2022-08-14T11:58:11.254Z,95272.13
2022-08-14T12:00:50.068Z,95264.28
2022-08-14T12:03:37.293Z,95258.25
2022-08-14T12:06:29.555Z,95253.31
2022-08-14T12:09:00.013Z,95254.28
2022-08-14T12:11:38.276Z,95252.38
2022-08-14T12:14:13.512Z,95244.72
2022-08-14T12:17:09.610Z,95248.38
2022-08-14T12:19:53.680Z,95243.78
2022-08-14T12:22:43.198Z,95243.44
2022-08-14T12:25:21.690Z,95237.06
2022-08-14T12:27:59.465Z,95236.28
2022-08-14T12:30:39.836Z,95230.53
2022-08-14T12:33:33.823Z,95218.38
2022-08-14T12:36:11.037Z,95224.28
2022-08-14T12:38:44.932Z,95219.19
2022-08-14T12:41:20.965Z,95207.38
2022-08-14T12:43:51.696Z,95207.69
2022-08-14T12:46:27.028Z,95217.25
2022-08-14T12:48:56.990Z,95203.38
2022-08-14T12:51:28.650Z,95213.41
2022-08-14T12:53:59.680Z,95209.72
2022-08-14T12:56:33.809Z,95210.56
2022-08-14T12:59:01.599Z,95211.53
2022-08-14T13:01:31.345Z,95214.56
2022-08-14T13:04:17.442Z,95209.91
2022-08-14T13:06:50.621Z,95199.41
2022-08-14T13:09:19.132Z,95198.13
2022-08-14T13:11:58.415Z,95204.50
2022-08-14T13:14:30.053Z,95204.94
2022-08-14T13:16:58.772Z,95208.28
2022-08-14T13:19:26.825Z,95201.84
2022-08-14T13:22:05.400Z,95198.28
2022-08-14T13:24:39.413Z,95200.53
2022-08-14T13:27:09.845Z,95196.84
2022-08-14T13:29:44.686Z,95202.13
2022-08-14T13:32:14.535Z,95196.59
2022-08-14T13:34:43.762Z,95198.22
2022-08-14T13:37:14.645Z,95195.38
2022-08-14T13:39:46.881Z,95186.00
2022-08-14T13:42:23.983Z,95187.59
2022-08-14T13:44:54.783Z,95188.88
2022-08-14T13:47:29.633Z,95185.34
2022-08-14T13:50:00.540Z,95188.19
2022-08-14T13:52:53.044Z,95200.47
2022-08-14T13:55:19.735Z,95187.47
2022-08-14T13:57:49.539Z,95185.59
2022-08-14T14:00:21.830Z,95178.75
2022-08-14T14:03:00.125Z,95185.78
2022-08-14T14:05:53.207Z,95180.00
2022-08-14T14:08:18.752Z,95174.69
2022-08-14T14:11:03.498Z,95173.84
2022-08-14T14:13:31.356Z,95165.34
2022-08-14T14:16:03.829Z,95174.00
2022-08-14T14:18:34.937Z,95168.72
2022-08-14T14:21:03.024Z,95170.59
2022-08-14T14:23:32.490Z,95181.94
2022-08-14T14:25:59.771Z,95183.75
2022-08-14T14:28:32.198Z,95178.78
2022-08-14T14:31:06.958Z,95188.56
2022-08-14T14:33:47.874Z,95187.22
2022-08-14T14:36:26.113Z,95185.84
2022-08-14T14:38:58.701Z,95178.53
2022-08-14T14:41:37.871Z,95173.72
2022-08-14T14:44:16.518Z,95163.97
2022-08-14T14:46:50.094Z,95177.69
2022-08-14T14:49:18.538Z,95174.16
2022-08-14T14:51:51.414Z,95171.63
2022-08-14T14:54:31.126Z,95162.06
2022-08-14T14:57:05.153Z,95155.81
2022-08-14T14:59:37.524Z,95156.72
2022-08-14T15:02:07.743Z,95158.69
2022-08-14T15:04:43.731Z,95146.56
2022-08-14T15:07:10.763Z,95147.88
2022-08-14T15:09:39.311Z,95146.16
2022-08-14T15:12:34.508Z,95140.56
2022-08-14T15:14:58.071Z,95137.16
2022-08-14T15:17:41.680Z,95128.31
2022-08-14T15:20:17.510Z,95130.84
2022-08-14T15:22:56.515Z,95128.28
2022-08-14T15:25:23.129Z,95135.44
2022-08-14T15:27:51.181Z,95131.28
2022-08-14T15:30:23.857Z,95128.84
2022-08-14T15:32:50.710Z,95131.56
2022-08-14T15:35:17.231Z,95121.59
2022-08-14T15:37:55.735Z,95114.25
2022-08-14T15:40:22.915Z,95115.06
2022-08-14T15:42:49.557Z,95112.16
2022-08-14T15:45:17.344Z,95112.28
2022-08-14T15:47:44.410Z,95108.94
2022-08-14T15:50:13.129Z,95106.19
2022-08-14T15:52:43.191Z,95103.41
2022-08-14T15:55:15.359Z,95103.53
2022-08-14T15:58:01.916Z,95098.88
2022-08-14T16:00:51.696Z,95102.66
2022-08-14T16:03:24.848Z,95098.88
2022-08-14T16:05:55.769Z,95108.00
2022-08-14T16:08:27.347Z,95119.53
2022-08-14T16:10:58.752Z,95117.50
2022-08-14T16:13:41.534Z,95130.09
2022-08-14T16:16:50.580Z,95149.91
2022-08-14T16:19:15.981Z,95144.75
2022-08-14T16:22:02.666Z,95151.25
2022-08-14T16:24:33.602Z,95154.25
2022-08-14T16:27:01.454Z,95151.53
2022-08-14T16:29:30.570Z,95163.19
2022-08-14T16:32:01.673Z,95161.53
2022-08-14T16:34:51.015Z,95166.78
2022-08-14T16:37:22.728Z,95168.13
2022-08-14T16:39:49.491Z,95169.44
2022-08-14T16:43:03.198Z,95169.94
2022-08-14T16:45:12.709Z,95169.69
2022-08-14T16:47:40.075Z,95169.56
2022-08-14T16:50:11.767Z,95159.16
2022-08-14T16:52:54.411Z,95162.75
2022-08-14T16:55:22.519Z,95159.28
2022-08-14T16:57:58.920Z,95160.72
2022-08-14T17:00:32.972Z,95164.63
2022-08-14T17:03:08.399Z,95157.94
2022-08-14T17:05:43.376Z,95166.28
2022-08-14T17:08:41.401Z,95160.09
2022-08-14T17:11:11.096Z,95162.84
2022-08-14T17:13:58.041Z,95159.34
2022-08-14T17:16:31.051Z,95164.28
2022-08-14T17:19:01.655Z,95161.09
2022-08-14T17:21:32.622Z,95165.75
2022-08-14T17:24:58.468Z,95155.69
2022-08-14T17:26:55.269Z,95152.97
2022-08-14T17:29:29.651Z,95161.13
2022-08-14T17:32:21.871Z,95156.63
2022-08-14T17:34:53.657Z,95146.09
2022-08-14T17:37:24.861Z,95150.69
2022-08-14T17:40:25.960Z,95159.75
2022-08-14T17:43:00.924Z,95169.16
2022-08-14T17:45:41.007Z,95175.34
2022-08-14T17:49:09.879Z,95170.66
2022-08-14T17:51:12.299Z,95168.69
2022-08-14T17:53:52.651Z,95171.47
2022-08-14T17:56:20.769Z,95181.78
2022-08-14T17:58:49.357Z,95181.41
2022-08-14T18:01:17.489Z,95185.31
2022-08-14T18:03:53.583Z,95200.38
2022-08-14T18:06:57.846Z,95202.22
2022-08-14T18:09:25.517Z,95203.22
2022-08-14T18:12:03.907Z,95204.66
2022-08-14T18:14:32.763Z,95196.06
2022-08-14T18:17:01.563Z,95193.59
2022-08-14T18:19:30.818Z,95186.81
2022-08-14T18:21:59.885Z,95197.84
2022-08-14T18:24:29.442Z,95196.69
2022-08-14T18:27:13.359Z,95199.78
2022-08-14T18:29:56.699Z,95189.09
2022-08-14T18:32:27.388Z,95189.78
2022-08-14T18:35:14.572Z,95182.00
2022-08-14T18:37:56.145Z,95192.22
2022-08-14T18:40:34.705Z,95192.22
2022-08-14T18:43:03.321Z,95174.66
2022-08-14T18:45:33.873Z,95181.84
2022-08-14T18:48:18.665Z,95186.63
2022-08-14T18:51:09.836Z,95186.94
2022-08-14T18:53:54.453Z,95187.59
2022-08-14T18:56:57.799Z,95191.31
2022-08-14T18:59:29.268Z,95197.78
2022-08-14T19:02:30.407Z,95198.25
2022-08-14T19:05:02.487Z,95191.72
2022-08-14T19:07:33.921Z,95189.41
2022-08-14T19:10:02.181Z,95180.91
2022-08-14T19:13:00.461Z,95186.31
2022-08-14T19:15:31.516Z,95189.09
2022-08-14T19:18:10.946Z,95192.06
2022-08-14T19:20:52.814Z,95193.56
2022-08-14T19:23:22.973Z,95192.09
2022-08-14T19:25:51.595Z,95191.66
2022-08-14T19:28:31.250Z,95198.09
2022-08-14T19:31:42.428Z,95192.47
2022-08-14T19:34:09.569Z,95204.91
2022-08-14T19:37:05.942Z,95201.22
2022-08-14T19:39:48.138Z,95206.75
2022-08-14T19:42:28.094Z,95208.94
2022-08-14T19:44:57.076Z,95201.47
2022-08-14T19:47:41.214Z,95202.13
2022-08-14T19:50:37.812Z,95205.19
2022-08-14T19:53:10.696Z,95209.34
2022-08-14T19:55:45.754Z,95220.09
2022-08-14T19:58:12.745Z,95218.47
2022-08-14T20:00:52.068Z,95213.72
2022-08-14T20:03:23.874Z,95218.13
2022-08-14T20:06:03.181Z,95210.63
2022-08-14T20:10:58.268Z,95212.50
2022-08-14T20:12:00.289Z,95211.28
2022-08-14T20:14:29.810Z,95214.31
2022-08-14T20:17:06.214Z,95202.22
2022-08-14T20:19:37.617Z,95205.03
2022-08-14T20:22:35.431Z,95203.97
2022-08-14T20:25:11.438Z,95202.97
2022-08-14T20:27:40.906Z,95201.41
2022-08-14T20:30:33.917Z,95198.53
2022-08-14T20:35:52.380Z,95195.19
2022-08-14T20:38:29.681Z,95184.94
2022-08-14T20:40:58.573Z,95182.50
2022-08-14T20:43:52.768Z,95180.09
2022-08-14T20:46:23.562Z,95172.66
2022-08-14T20:49:09.157Z,95165.69
2022-08-14T20:51:38.885Z,95165.41
2022-08-14T20:54:22.001Z,95154.69
2022-08-14T20:57:08.599Z,95152.34
2022-08-14T20:59:48.762Z,95154.50
2022-08-14T21:02:30.353Z,95140.81
2022-08-14T21:05:16.655Z,95144.06
2022-08-14T21:07:44.528Z,95148.13
2022-08-14T21:10:32.729Z,95137.13
2022-08-14T21:13:26.807Z,95145.28
2022-08-14T21:15:57.799Z,95144.53
2022-08-14T21:18:47.489Z,95146.13
2022-08-14T21:21:18.473Z,95147.22
2022-08-14T21:23:54.725Z,95143.47
2022-08-14T21:26:51.152Z,95139.81
2022-08-14T21:29:13.510Z,95138.22
2022-08-14T21:31:41.253Z,95141.44
2022-08-14T21:34:27.303Z,95141.22
2022-08-14T21:36:56.747Z,95142.38
2022-08-14T21:39:24.761Z,95140.47
2022-08-14T21:41:58.880Z,95148.53
2022-08-14T21:44:42.715Z,95142.13
2022-08-14T21:47:10.092Z,95140.00
2022-08-14T21:49:38.700Z,95138.72
2022-08-14T21:52:52.225Z,95133.13
2022-08-14T21:54:58.198Z,95140.09
2022-08-14T21:57:53.553Z,95139.59
2022-08-14T22:00:34.751Z,95130.22
2022-08-14T22:03:08.910Z,95132.41
2022-08-14T22:05:40.878Z,95140.78
2022-08-14T22:08:11.975Z,95140.50
2022-08-14T22:10:42.464Z,95153.06
2022-08-14T22:13:12.257Z,95150.41
2022-08-14T22:15:43.822Z,95150.97
2022-08-14T22:18:20.418Z,95147.25
2022-08-14T22:20:53.368Z,95140.56
2022-08-14T22:23:23.136Z,95149.41
2022-08-14T22:25:49.907Z,95148.88
2022-08-14T22:28:25.423Z,95141.59
2022-08-14T22:30:55.010Z,95138.41
2022-08-14T22:33:31.005Z,95142.44
2022-08-14T22:36:00.402Z,95127.19
2022-08-14T22:38:37.572Z,95128.81
2022-08-14T22:41:26.594Z,95121.28
2022-08-14T22:43:56.947Z,95129.88
2022-08-14T22:46:26.420Z,95139.78
2022-08-14T22:48:53.828Z,95145.16
2022-08-14T22:51:22.759Z,95147.06
2022-08-14T22:53:52.317Z,95143.59
2022-08-14T22:56:21.856Z,95152.19
2022-08-14T22:58:54.056Z,95157.03
2022-08-14T23:01:55.479Z,95153.81
2022-08-14T23:04:35.906Z,95152.72
2022-08-14T23:07:22.234Z,95145.78
2022-08-14T23:09:56.486Z,95145.00
2022-08-14T23:12:27.369Z,95139.88
2022-08-14T23:14:55.666Z,95139.88
2022-08-14T23:17:22.665Z,95141.25
2022-08-14T23:19:49.315Z,95144.72
2022-08-14T23:22:24.366Z,95142.03
2022-08-14T23:24:57.814Z,95134.00
2022-08-14T23:27:28.411Z,95130.31
2022-08-14T23:29:58.774Z,95139.97
2022-08-14T23:32:27.295Z,95137.81
2022-08-14T23:34:57.331Z,95131.91
2022-08-14T23:37:27.002Z,95130.06
2022-08-14T23:39:54.430Z,95125.19
2022-08-14T23:42:22.328Z,95110.47
2022-08-14T23:45:07.602Z,95117.41
2022-08-14T23:47:51.898Z,95121.19
2022-08-14T23:50:34.067Z,95110.75
2022-08-14T23:53:27.880Z,95117.47
2022-08-14T23:56:17.488Z,95116.94
2022-08-14T23:58:49.336Z,95128.75
